Time,TemperatureF,DewpointF,PressureIn,WindDirection,WindDirectionDegrees,WindSpeedMPH,WindSpeedGustMPH,Humidity,HourlyPrecipIn,Conditions,Clouds,dailyrainin,SoftwareType,DateUTC
2013-01-29 03:08:00,32.0,25.7,29.85,North,-999,0.0,0.0,77,0.00,,,-99.99,FreeWX 2.04,2013-01-29 08:08:00,
2013-01-29 03:13:00,32.0,25.9,29.85,North,-999,0.0,0.0,78,0.00,,,-99.99,FreeWX 2.04,2013-01-29 08:13:00,
2013-01-29 03:18:00,32.0,25.9,29.88,North,-999,0.0,0.0,78,0.00,,,-99.99,FreeWX 2.04,2013-01-29 08:18:00,
2013-01-29 03:23:00,32.0,25.9,29.88,North,-999,0.0,0.0,78,0.00,,,-99.99,FreeWX 2.04,2013-01-29 08:23:00,
2013-01-29 03:28:00,32.0,25.9,29.88,North,-999,0.0,0.0,78,0.00,,,-99.99,FreeWX 2.04,2013-01-29 08:28:00,
2013-01-29 03:33:00,32.0,25.9,29.85,North,-999,0.0,0.0,78,0.00,,,-99.99,FreeWX 2.04,2013-01-29 08:33:00,
2013-01-29 03:38:00,31.8,25.5,29.85,North,-999,0.0,0.0,77,0.00,,,-99.99,FreeWX 2.04,2013-01-29 08:38:00,
2013-01-29 03:43:00,32.0,25.9,29.85,North,-999,0.0,0.0,78,0.00,,,-99.99,FreeWX 2.04,2013-01-29 08:43:00,
2013-01-29 03:49:00,32.0,25.9,29.82,North,-999,0.0,0.0,78,0.00,,,-99.99,FreeWX 2.04,2013-01-29 08:49:00,
2013-01-29 03:54:00,32.2,26.1,29.82,North,-999,0.0,0.0,78,0.00,,,-99.99,FreeWX 2.04,2013-01-29 08:54:00,
2013-01-29 03:59:00,32.2,26.1,29.82,North,-999,0.0,0.0,78,0.00,,,-99.99,FreeWX 2.04,2013-01-29 08:59:00,
2013-01-29 04:04:00,32.2,26.1,29.82,North,-999,0.0,0.0,78,0.00,,,-99.99,FreeWX 2.04,2013-01-29 09:04:00,
2013-01-29 04:09:00,32.2,26.1,29.82,North,-999,0.0,0.0,78,0.00,,,-99.99,FreeWX 2.04,2013-01-29 09:09:00,
2013-01-29 04:14:00,32.2,26.1,29.82,North,-999,0.0,0.0,78,0.00,,,-99.99,FreeWX 2.04,2013-01-29 09:14:00,
2013-01-29 04:19:00,32.2,26.1,29.82,North,-999,0.0,0.0,78,0.00,,,-99.99,FreeWX 2.04,2013-01-29 09:19:00,
2013-01-29 04:24:00,32.2,26.1,29.82,North,-999,0.0,0.0,78,0.00,,,-99.99,FreeWX 2.04,2013-01-29 09:24:00,
2013-01-29 04:29:00,32.2,26.1,29.82,North,-999,0.0,0.0,78,0.00,,,-99.99,FreeWX 2.04,2013-01-29 09:29:00,
2013-01-29 04:34:00,32.2,26.1,29.82,North,-999,0.0,0.0,78,0.00,,,-99.99,FreeWX 2.04,2013-01-29 09:34:00,
2013-01-29 04:39:00,32.2,26.1,29.82,North,-999,0.0,0.0,78,0.00,,,-99.99,FreeWX 2.04,2013-01-29 09:39:00,
2013-01-29 06:21:00,32.7,27.0,29.76,North,-999,0.0,3.6,79,0.00,,,-99.99,FreeWX 2.04,2013-01-29 11:21:00,
2013-01-29 06:26:00,32.7,27.0,29.76,North,-999,0.0,2.7,79,0.00,,,-99.99,FreeWX 2.04,2013-01-29 11:26:00,
2013-01-29 06:31:00,32.7,27.0,29.76,North,-999,0.0,2.7,79,0.00,,,-99.99,FreeWX 2.04,2013-01-29 11:31:00,
2013-01-29 06:36:00,32.7,27.0,29.76,North,-999,0.0,0.0,79,0.00,,,-99.99,FreeWX 2.04,2013-01-29 11:36:00,
2013-01-29 06:41:00,32.7,27.0,29.76,North,-999,0.0,0.0,79,0.00,,,-99.99,FreeWX 2.04,2013-01-29 11:41:00,
2013-01-29 06:46:00,32.7,27.0,29.76,North,-999,0.0,0.0,79,0.00,,,-99.99,FreeWX 2.04,2013-01-29 11:46:00,
2013-01-29 06:51:00,32.7,27.0,29.74,North,-999,0.0,3.6,79,0.00,,,-99.99,FreeWX 2.04,2013-01-29 11:51:00,
2013-01-29 06:56:00,32.7,27.0,29.74,North,-999,0.0,0.0,79,0.00,,,-99.99,FreeWX 2.04,2013-01-29 11:56:00,
2013-01-29 07:01:00,32.7,27.0,29.74,North,-999,0.0,0.0,79,0.00,,,-99.99,FreeWX 2.04,2013-01-29 12:01:00,
2013-01-29 07:06:00,32.7,27.0,29.74,North,-999,0.0,0.0,79,0.00,,,-99.99,FreeWX 2.04,2013-01-29 12:06:00,
2013-01-29 07:11:00,32.7,27.0,29.74,North,-999,0.0,0.0,79,0.00,,,-99.99,FreeWX 2.04,2013-01-29 12:11:00,
2013-01-29 07:16:00,32.7,27.0,29.74,North,-999,0.0,0.0,79,0.04,,,-99.99,FreeWX 2.04,2013-01-29 12:16:00,
2013-01-29 07:21:00,32.7,27.0,29.74,North,-999,0.0,0.0,79,0.04,,,-99.99,FreeWX 2.04,2013-01-29 12:21:00,
2013-01-29 07:26:00,32.7,27.0,29.74,North,-999,0.0,0.0,79,0.04,,,-99.99,FreeWX 2.04,2013-01-29 12:26:00,
2013-01-29 07:31:00,32.7,27.0,29.74,North,-999,0.0,0.0,79,0.04,,,-99.99,FreeWX 2.04,2013-01-29 12:31:00,
2013-01-29 07:36:00,32.9,27.1,29.74,North,-999,0.0,0.0,79,0.04,,,-99.99,FreeWX 2.04,2013-01-29 12:36:00,
2013-01-29 07:41:00,32.9,27.1,29.74,North,-999,0.0,0.0,79,0.04,,,-99.99,FreeWX 2.04,2013-01-29 12:41:00,
2013-01-29 07:46:00,32.9,26.8,29.74,North,-999,0.0,0.0,78,0.04,,,-99.99,FreeWX 2.04,2013-01-29 12:46:00,
2013-01-29 07:51:00,32.9,27.1,29.74,North,-999,0.0,0.0,79,0.08,,,-99.99,FreeWX 2.04,2013-01-29 12:51:00,
2013-01-29 07:56:00,32.9,27.1,29.74,North,-999,0.0,3.6,79,0.08,,,-99.99,FreeWX 2.04,2013-01-29 12:56:00,
2013-01-29 08:01:00,32.9,27.1,29.74,NE,55,1.0,4.0,79,0.08,,,-99.99,FreeWX 2.04,2013-01-29 13:01:00,
2013-01-29 08:06:00,32.7,27.0,29.71,North,-999,0.0,0.0,79,0.08,,,-99.99,FreeWX 2.04,2013-01-29 13:06:00,
2013-01-29 08:11:00,32.7,27.0,29.71,North,-999,0.0,0.0,79,0.08,,,-99.99,FreeWX 2.04,2013-01-29 13:11:00,
2013-01-29 08:16:00,32.7,27.0,29.71,North,-999,0.0,4.9,79,0.04,,,-99.99,FreeWX 2.04,2013-01-29 13:16:00,
2013-01-29 08:21:00,32.9,27.1,29.68,ESE,108,1.0,4.5,79,0.04,,,-99.99,FreeWX 2.04,2013-01-29 13:21:00,
2013-01-29 08:26:00,33.1,27.3,29.68,South,179,1.0,4.9,79,0.04,,,-99.99,FreeWX 2.04,2013-01-29 13:26:00,
2013-01-29 08:31:00,33.3,27.5,29.68,SW,236,1.0,4.9,79,0.04,,,-99.99,FreeWX 2.04,2013-01-29 13:31:00,
2013-01-29 08:36:00,33.3,27.5,29.68,North,-999,0.0,3.6,79,0.04,,,-99.99,FreeWX 2.04,2013-01-29 13:36:00,
2013-01-29 08:41:00,33.4,27.7,29.68,North,-999,0.0,4.9,79,0.04,,,-99.99,FreeWX 2.04,2013-01-29 13:41:00,
2013-01-29 08:46:00,33.4,27.7,29.68,SSE,149,1.0,4.9,79,0.00,,,-99.99,FreeWX 2.04,2013-01-29 13:46:00,
2013-01-29 08:51:00,33.4,27.7,29.68,North,-999,0.0,0.0,79,0.00,,,-99.99,FreeWX 2.04,2013-01-29 13:51:00,
2013-01-29 08:56:00,33.6,27.9,29.68,North,-999,0.0,4.0,79,0.04,,,-99.99,FreeWX 2.04,2013-01-29 13:56:00,
2013-01-29 09:01:00,33.6,27.9,29.68,North,-999,0.0,3.1,79,0.04,,,-99.99,FreeWX 2.04,2013-01-29 14:01:00,
2013-01-29 09:06:00,33.6,27.9,29.68,North,-999,0.0,3.6,79,0.04,,,-99.99,FreeWX 2.04,2013-01-29 14:06:00,
2013-01-29 09:11:00,33.6,27.9,29.68,North,-999,0.0,4.0,79,0.04,,,-99.99,FreeWX 2.04,2013-01-29 14:11:00,
2013-01-29 09:16:00,33.8,28.0,29.68,North,-999,0.0,4.0,79,0.04,,,-99.99,FreeWX 2.04,2013-01-29 14:16:00,
2013-01-29 09:21:00,34.0,28.4,29.68,North,-999,0.0,4.0,80,0.04,,,-99.99,FreeWX 2.04,2013-01-29 14:21:00,
2013-01-29 09:26:00,34.0,28.4,29.68,North,-999,0.0,0.0,80,0.04,,,-99.99,FreeWX 2.04,2013-01-29 14:26:00,
2013-01-29 09:31:00,34.2,28.6,29.68,North,-999,0.0,0.0,80,0.04,,,-99.99,FreeWX 2.04,2013-01-29 14:31:00,
2013-01-29 09:36:00,34.3,28.8,29.68,North,-999,0.0,0.0,80,0.04,,,-99.99,FreeWX 2.04,2013-01-29 14:36:00,
2013-01-29 09:41:00,34.5,28.9,29.68,North,-999,0.0,0.0,80,0.04,,,-99.99,FreeWX 2.04,2013-01-29 14:41:00,
2013-01-29 09:46:00,34.5,28.9,29.68,North,-999,0.0,0.0,80,0.04,,,-99.99,FreeWX 2.04,2013-01-29 14:46:00,
2013-01-29 09:51:00,34.5,28.9,29.65,North,-999,0.0,0.0,80,0.04,,,-99.99,FreeWX 2.04,2013-01-29 14:51:00,
2013-01-29 09:56:00,34.7,29.1,29.65,North,-999,0.0,0.0,80,0.00,,,-99.99,FreeWX 2.04,2013-01-29 14:56:00,
2013-01-29 10:02:00,34.7,29.1,29.65,North,-999,0.0,4.9,80,0.00,,,-99.99,FreeWX 2.04,2013-01-29 15:02:00,
2013-01-29 10:07:00,34.9,29.3,29.65,North,-999,0.0,5.8,80,0.00,,,-99.99,FreeWX 2.04,2013-01-29 15:07:00,
2013-01-29 10:12:00,34.9,29.3,29.65,North,-999,0.0,4.0,80,0.00,,,-99.99,FreeWX 2.04,2013-01-29 15:12:00,
2013-01-29 10:17:00,34.9,29.3,29.65,North,-999,0.0,0.0,80,0.00,,,-99.99,FreeWX 2.04,2013-01-29 15:17:00,
2013-01-29 10:22:00,34.7,29.1,29.65,North,-999,0.0,4.0,80,0.00,,,-99.99,FreeWX 2.04,2013-01-29 15:22:00,
2013-01-29 10:27:00,34.7,28.9,29.65,North,-999,0.0,0.0,79,0.00,,,-99.99,FreeWX 2.04,2013-01-29 15:27:00,
2013-01-29 10:32:00,34.9,29.3,29.65,North,-999,0.0,0.0,80,0.00,,,-99.99,FreeWX 2.04,2013-01-29 15:32:00,
2013-01-29 10:37:00,35.1,29.5,29.65,North,-999,0.0,0.0,80,0.00,,,-99.99,FreeWX 2.04,2013-01-29 15:37:00,
2013-01-29 10:42:00,35.1,29.5,29.65,North,-999,0.0,4.9,80,0.04,,,-99.99,FreeWX 2.04,2013-01-29 15:42:00,
2013-01-29 10:47:00,35.2,29.7,29.65,North,-999,0.0,2.7,80,0.04,,,-99.99,FreeWX 2.04,2013-01-29 15:47:00,
2013-01-29 10:52:00,35.2,29.7,29.65,North,-999,0.0,0.0,80,0.04,,,-99.99,FreeWX 2.04,2013-01-29 15:52:00,
2013-01-29 10:57:00,35.4,29.8,29.65,North,-999,0.0,4.9,80,0.04,,,-99.99,FreeWX 2.04,2013-01-29 15:57:00,
2013-01-29 11:02:00,35.6,30.4,29.65,North,-999,0.0,3.6,81,0.04,,,-99.99,FreeWX 2.04,2013-01-29 16:02:00,
2013-01-29 11:07:00,35.8,30.6,29.65,North,-999,0.0,3.1,81,0.04,,,-99.99,FreeWX 2.04,2013-01-29 16:07:00,
2013-01-29 11:12:00,36.1,30.9,29.65,North,-999,0.0,3.6,81,0.04,,,-99.99,FreeWX 2.04,2013-01-29 16:12:00,
2013-01-29 11:17:00,36.3,31.1,29.65,SW,221,1.0,4.0,81,0.04,,,-99.99,FreeWX 2.04,2013-01-29 16:17:00,
2013-01-29 11:22:00,36.5,31.5,29.62,North,-999,0.0,4.9,82,0.04,,,-99.99,FreeWX 2.04,2013-01-29 16:22:00,
2013-01-29 11:27:00,36.5,31.3,29.62,WSW,241,1.0,4.0,81,0.04,,,-99.99,FreeWX 2.04,2013-01-29 16:27:00,
2013-01-29 11:32:00,36.9,31.6,29.62,North,-999,0.0,4.5,81,0.04,,,-99.99,FreeWX 2.04,2013-01-29 16:32:00,
2013-01-29 11:37:00,37.2,32.2,29.62,WSW,245,1.0,4.0,82,0.04,,,-99.99,FreeWX 2.04,2013-01-29 16:37:00,
2013-01-29 11:42:00,37.4,32.4,29.62,WSW,246,1.0,5.4,82,0.04,,,-99.99,FreeWX 2.04,2013-01-29 16:42:00,
2013-01-29 11:47:00,37.4,32.4,29.62,WSW,246,2.0,4.9,82,0.04,,,-99.99,FreeWX 2.04,2013-01-29 16:47:00,
2013-01-29 11:52:00,37.4,32.4,29.62,WSW,237,2.0,7.4,82,0.04,,,-99.99,FreeWX 2.04,2013-01-29 16:52:00,
2013-01-29 11:57:00,37.8,32.7,29.62,SSW,209,1.0,5.8,82,0.04,,,-99.99,FreeWX 2.04,2013-01-29 16:57:00,
2013-01-29 12:02:00,38.3,33.3,29.62,SW,215,1.0,5.8,82,0.04,,,-99.99,FreeWX 2.04,2013-01-29 17:02:00,
2013-01-29 12:07:00,38.7,33.6,29.59,SSW,212,1.0,5.4,82,0.04,,,-99.99,FreeWX 2.04,2013-01-29 17:07:00,
2013-01-29 12:12:00,38.7,33.6,29.59,SSW,201,2.0,4.5,82,0.04,,,-99.99,FreeWX 2.04,2013-01-29 17:12:00,
2013-01-29 12:17:00,38.8,33.8,29.59,SSW,201,3.0,8.3,82,0.08,,,-99.99,FreeWX 2.04,2013-01-29 17:17:00,
2013-01-29 12:22:00,38.7,33.6,29.59,South,189,2.0,5.8,82,0.08,,,-99.99,FreeWX 2.04,2013-01-29 17:22:00,
2013-01-29 12:27:00,38.7,33.6,29.59,SSW,201,2.0,4.0,82,0.08,,,-99.99,FreeWX 2.04,2013-01-29 17:27:00,
2013-01-29 12:32:00,38.3,33.1,29.59,SSW,212,2.0,5.4,81,0.08,,,-99.99,FreeWX 2.04,2013-01-29 17:32:00,
2013-01-29 12:37:00,38.1,32.9,29.56,SSW,199,1.0,4.9,81,0.04,,,-99.99,FreeWX 2.04,2013-01-29 17:37:00,
2013-01-29 12:42:00,38.1,32.9,29.56,South,184,1.0,4.0,81,0.04,,,-99.99,FreeWX 2.04,2013-01-29 17:42:00,
2013-01-29 12:47:00,38.1,32.9,29.56,North,-999,0.0,0.0,81,0.04,,,-99.99,FreeWX 2.04,2013-01-29 17:47:00,
2013-01-29 12:52:00,38.5,33.1,29.56,North,-999,0.0,2.7,81,0.04,,,-99.99,FreeWX 2.04,2013-01-29 17:52:00,
2013-01-29 12:57:00,38.7,33.6,29.56,North,-999,0.0,0.0,82,0.04,,,-99.99,FreeWX 2.04,2013-01-29 17:57:00,
2013-01-29 13:02:00,39.0,34.0,29.56,North,-999,0.0,4.5,82,0.08,,,-99.99,FreeWX 2.04,2013-01-29 18:02:00,
2013-01-29 13:07:00,39.2,34.2,29.56,North,-999,0.0,3.6,82,0.08,,,-99.99,FreeWX 2.04,2013-01-29 18:07:00,
2013-01-29 13:12:00,39.4,34.3,29.56,North,-999,0.0,0.0,82,0.08,,,-99.99,FreeWX 2.04,2013-01-29 18:12:00,
2013-01-29 13:17:00,39.7,35.1,29.56,North,-999,0.0,3.6,83,0.04,,,-99.99,FreeWX 2.04,2013-01-29 18:17:00,
2013-01-29 13:22:00,39.9,35.2,29.56,North,-999,0.0,3.6,83,0.04,,,-99.99,FreeWX 2.04,2013-01-29 18:22:00,
2013-01-29 13:27:00,40.3,35.6,29.56,North,-999,0.0,4.0,83,0.04,,,-99.99,FreeWX 2.04,2013-01-29 18:27:00,
2013-01-29 13:32:00,40.5,35.8,29.56,North,-999,0.0,0.0,83,0.04,,,-99.99,FreeWX 2.04,2013-01-29 18:32:00,
2013-01-29 13:37:00,40.3,35.6,29.53,North,-999,0.0,4.0,83,0.04,,,-99.99,FreeWX 2.04,2013-01-29 18:37:00,
2013-01-29 13:42:00,40.1,35.4,29.53,North,-999,0.0,0.0,83,0.04,,,-99.99,FreeWX 2.04,2013-01-29 18:42:00,
2013-01-29 13:47:00,39.7,34.7,29.53,North,-999,0.0,0.0,82,0.04,,,-99.99,FreeWX 2.04,2013-01-29 18:47:00,
2013-01-29 13:52:00,39.6,34.2,29.53,North,-999,0.0,4.5,81,0.08,,,-99.99,FreeWX 2.04,2013-01-29 18:52:00,
2013-01-29 13:57:00,39.7,34.7,29.53,SSW,211,1.0,5.8,82,0.08,,,-99.99,FreeWX 2.04,2013-01-29 18:57:00,
2013-01-29 14:02:00,40.3,35.2,29.53,West,259,1.0,4.9,82,0.04,,,-99.99,FreeWX 2.04,2013-01-29 19:02:00,
2013-01-29 14:07:00,40.6,35.6,29.53,West,278,1.0,4.9,82,0.04,,,-99.99,FreeWX 2.04,2013-01-29 19:07:00,
2013-01-29 14:12:00,41.0,36.3,29.53,West,263,1.0,6.7,83,0.04,,,-99.99,FreeWX 2.04,2013-01-29 19:12:00,
2013-01-29 14:17:00,41.4,36.7,29.53,North,-999,0.0,4.0,83,0.04,,,-99.99,FreeWX 2.04,2013-01-29 19:17:00,
2013-01-29 14:22:00,41.5,36.7,29.53,North,-999,0.0,0.0,83,0.04,,,-99.99,FreeWX 2.04,2013-01-29 19:22:00,
2013-01-29 14:27:00,41.5,36.7,29.53,North,-999,0.0,3.1,83,0.04,,,-99.99,FreeWX 2.04,2013-01-29 19:27:00,
2013-01-29 14:32:00,41.5,36.7,29.53,North,-999,0.0,4.5,83,0.08,,,-99.99,FreeWX 2.04,2013-01-29 19:32:00,
2013-01-29 14:37:00,42.1,37.2,29.50,WSW,254,1.0,5.4,83,0.08,,,-99.99,FreeWX 2.04,2013-01-29 19:37:00,
2013-01-29 14:42:00,42.4,37.6,29.50,North,-999,0.0,0.0,83,0.08,,,-99.99,FreeWX 2.04,2013-01-29 19:42:00,
2013-01-29 14:47:00,42.8,38.3,29.50,North,-999,0.0,3.6,84,0.08,,,-99.99,FreeWX 2.04,2013-01-29 19:47:00,
2013-01-29 14:52:00,42.8,38.3,29.50,North,-999,0.0,3.1,84,0.04,,,-99.99,FreeWX 2.04,2013-01-29 19:52:00,
2013-01-29 14:57:00,42.6,37.8,29.50,North,-999,0.0,0.0,83,0.04,,,-99.99,FreeWX 2.04,2013-01-29 19:57:00,
2013-01-29 15:02:00,42.6,37.8,29.50,North,-999,0.0,0.0,83,0.04,,,-99.99,FreeWX 2.04,2013-01-29 20:02:00,
2013-01-29 15:07:00,42.4,37.6,29.50,North,-999,0.0,3.6,83,0.04,,,-99.99,FreeWX 2.04,2013-01-29 20:07:00,
2013-01-29 15:12:00,42.3,37.2,29.50,North,-999,0.0,0.0,82,0.04,,,-99.99,FreeWX 2.04,2013-01-29 20:12:00,
2013-01-29 15:17:00,42.1,37.0,29.50,North,-999,0.0,0.0,82,0.04,,,-99.99,FreeWX 2.04,2013-01-29 20:17:00,
2013-01-29 15:22:00,42.1,37.0,29.50,North,-999,0.0,0.0,82,0.04,,,-99.99,FreeWX 2.04,2013-01-29 20:22:00,
2013-01-29 15:27:00,42.1,37.0,29.50,North,-999,0.0,0.0,82,0.12,,,-99.99,FreeWX 2.04,2013-01-29 20:27:00,
2013-01-29 15:32:00,42.1,37.0,29.50,North,-999,0.0,0.0,82,0.08,,,-99.99,FreeWX 2.04,2013-01-29 20:32:00,
2013-01-29 15:37:00,42.3,37.2,29.50,North,-999,0.0,0.0,82,0.08,,,-99.99,FreeWX 2.04,2013-01-29 20:37:00,
2013-01-29 15:42:00,42.1,37.0,29.50,North,-999,0.0,0.0,82,0.08,,,-99.99,FreeWX 2.04,2013-01-29 20:42:00,
2013-01-29 15:47:00,41.7,36.7,29.50,North,-999,0.0,0.0,82,0.08,,,-99.99,FreeWX 2.04,2013-01-29 20:47:00,
2013-01-29 15:52:00,41.7,36.3,29.50,North,-999,0.0,0.0,81,0.08,,,-99.99,FreeWX 2.04,2013-01-29 20:52:00,
2013-01-29 15:57:00,41.2,35.8,29.50,North,-999,0.0,0.0,81,0.08,,,-99.99,FreeWX 2.04,2013-01-29 20:57:00,
2013-01-29 16:02:00,41.2,35.8,29.50,North,-999,0.0,0.0,81,0.08,,,-99.99,FreeWX 2.04,2013-01-29 21:02:00,
2013-01-29 16:07:00,41.4,36.0,29.53,North,-999,0.0,0.0,81,0.08,,,-99.99,FreeWX 2.04,2013-01-29 21:07:00,
2013-01-29 16:12:00,41.4,36.0,29.53,North,-999,0.0,0.0,81,0.08,,,-99.99,FreeWX 2.04,2013-01-29 21:12:00,
2013-01-29 16:17:00,41.5,36.5,29.53,North,-999,0.0,0.0,82,0.08,,,-99.99,FreeWX 2.04,2013-01-29 21:17:00,
2013-01-29 16:22:00,41.5,36.5,29.50,North,-999,0.0,0.0,82,0.00,,,-99.99,FreeWX 2.04,2013-01-29 21:22:00,
2013-01-29 16:27:00,41.4,36.0,29.50,North,-999,0.0,0.0,81,0.00,,,-99.99,FreeWX 2.04,2013-01-29 21:27:00,
2013-01-29 16:32:00,41.2,35.8,29.50,North,-999,0.0,0.0,81,0.00,,,-99.99,FreeWX 2.04,2013-01-29 21:32:00,
2013-01-29 16:37:00,41.2,35.8,29.50,North,-999,0.0,0.0,81,0.00,,,-99.99,FreeWX 2.04,2013-01-29 21:37:00,
2013-01-29 16:42:00,41.2,35.8,29.50,North,-999,0.0,0.0,81,0.00,,,-99.99,FreeWX 2.04,2013-01-29 21:42:00,
2013-01-29 16:47:00,40.5,34.7,29.50,North,-999,0.0,0.0,80,0.00,,,-99.99,FreeWX 2.04,2013-01-29 21:47:00,
2013-01-29 16:52:00,39.4,33.4,29.50,North,-999,0.0,0.0,79,0.04,,,-99.99,FreeWX 2.04,2013-01-29 21:52:00,
2013-01-29 16:57:00,38.7,32.4,29.50,North,-999,0.0,0.0,78,0.04,,,-99.99,FreeWX 2.04,2013-01-29 21:57:00,
2013-01-29 17:02:00,38.1,31.8,29.50,North,-999,0.0,0.0,78,0.04,,,-99.99,FreeWX 2.04,2013-01-29 22:02:00,
2013-01-29 17:07:00,37.6,31.3,29.50,North,-999,0.0,0.0,78,0.04,,,-99.99,FreeWX 2.04,2013-01-29 22:07:00,
2013-01-29 17:12:00,37.2,30.9,29.50,North,-999,0.0,0.0,78,0.04,,,-99.99,FreeWX 2.04,2013-01-29 22:12:00,
2013-01-29 17:17:00,36.9,30.7,29.50,North,-999,0.0,0.0,78,0.04,,,-99.99,FreeWX 2.04,2013-01-29 22:17:00,
2013-01-29 17:22:00,36.7,30.6,29.50,North,-999,0.0,0.0,78,0.04,,,-99.99,FreeWX 2.04,2013-01-29 22:22:00,
2013-01-29 17:27:00,36.3,30.2,29.50,North,-999,0.0,0.0,78,0.04,,,-99.99,FreeWX 2.04,2013-01-29 22:27:00,
2013-01-29 17:32:00,36.3,30.4,29.50,North,-999,0.0,0.0,79,0.04,,,-99.99,FreeWX 2.04,2013-01-29 22:32:00,
2013-01-29 17:37:00,36.1,30.2,29.50,North,-999,0.0,0.0,79,0.04,,,-99.99,FreeWX 2.04,2013-01-29 22:37:00,
2013-01-29 17:42:00,36.1,30.2,29.50,North,-999,0.0,0.0,79,0.04,,,-99.99,FreeWX 2.04,2013-01-29 22:42:00,
2013-01-29 17:47:00,36.1,30.2,29.50,North,-999,0.0,0.0,79,0.04,,,-99.99,FreeWX 2.04,2013-01-29 22:47:00,
2013-01-29 17:52:00,36.1,30.2,29.50,North,-999,0.0,0.0,79,0.00,,,-99.99,FreeWX 2.04,2013-01-29 22:52:00,
2013-01-29 17:57:00,36.0,30.0,29.50,North,-999,0.0,0.0,79,0.00,,,-99.99,FreeWX 2.04,2013-01-29 22:57:00,
2013-01-29 18:02:00,35.8,29.8,29.50,North,-999,0.0,0.0,79,0.00,,,-99.99,FreeWX 2.04,2013-01-29 23:02:00,
2013-01-29 18:07:00,35.8,29.8,29.50,North,-999,0.0,0.0,79,0.00,,,-99.99,FreeWX 2.04,2013-01-29 23:07:00,
2013-01-29 18:12:00,35.8,30.2,29.50,North,-999,0.0,0.0,80,0.00,,,-99.99,FreeWX 2.04,2013-01-29 23:12:00,
2013-01-29 18:17:00,35.8,30.2,29.50,North,-999,0.0,0.0,80,0.00,,,-99.99,FreeWX 2.04,2013-01-29 23:17:00,
2013-01-29 18:22:00,36.0,30.4,29.50,North,-999,0.0,0.0,80,0.00,,,-99.99,FreeWX 2.04,2013-01-29 23:22:00,
2013-01-29 18:27:00,36.0,30.4,29.50,North,-999,0.0,0.0,80,0.00,,,-99.99,FreeWX 2.04,2013-01-29 23:27:00,
2013-01-29 18:32:00,36.1,30.9,29.50,North,-999,0.0,0.0,81,0.00,,,-99.99,FreeWX 2.04,2013-01-29 23:32:00,
2013-01-29 18:37:00,36.9,31.6,29.50,North,-999,0.0,0.0,81,0.00,,,-99.99,FreeWX 2.04,2013-01-29 23:37:00,
2013-01-29 18:42:00,38.7,33.6,29.50,North,-999,0.0,4.9,82,0.00,,,-99.99,FreeWX 2.04,2013-01-29 23:42:00,
2013-01-29 18:47:00,40.3,35.8,29.50,WSW,253,1.0,5.4,84,0.00,,,-99.99,FreeWX 2.04,2013-01-29 23:47:00,
2013-01-29 18:52:00,40.8,36.3,29.50,SW,229,1.0,5.8,84,0.00,,,-99.99,FreeWX 2.04,2013-01-29 23:52:00,
2013-01-29 18:57:00,39.6,34.9,29.50,South,187,1.0,4.0,83,0.00,,,-99.99,FreeWX 2.04,2013-01-29 23:57:00,
2013-01-29 19:02:00,38.1,33.1,29.50,South,180,1.0,4.5,82,0.00,,,-99.99,FreeWX 2.04,2013-01-30 00:02:00,
2013-01-29 19:07:00,37.4,31.8,29.47,North,-999,0.0,3.1,80,0.00,,,-99.99,FreeWX 2.04,2013-01-30 00:07:00,
2013-01-29 19:12:00,37.0,31.5,29.47,North,-999,0.0,3.6,80,0.00,,,-99.99,FreeWX 2.04,2013-01-30 00:12:00,
2013-01-29 19:17:00,37.0,31.5,29.47,North,-999,0.0,0.0,80,0.00,,,-99.99,FreeWX 2.04,2013-01-30 00:17:00,
2013-01-29 19:22:00,37.0,31.5,29.47,North,-999,0.0,0.0,80,0.00,,,-99.99,FreeWX 2.04,2013-01-30 00:22:00,
2013-01-29 19:27:00,37.0,31.5,29.47,North,-999,0.0,0.0,80,0.00,,,-99.99,FreeWX 2.04,2013-01-30 00:27:00,
2013-01-29 19:32:00,37.2,32.0,29.47,North,-999,0.0,3.6,81,0.00,,,-99.99,FreeWX 2.04,2013-01-30 00:32:00,
2013-01-29 19:37:00,37.2,32.0,29.47,North,-999,0.0,0.0,81,0.00,,,-99.99,FreeWX 2.04,2013-01-30 00:37:00,
2013-01-29 19:42:00,37.2,32.0,29.47,North,-999,0.0,0.0,81,0.00,,,-99.99,FreeWX 2.04,2013-01-30 00:42:00,
2013-01-29 19:47:00,37.0,31.8,29.47,North,-999,0.0,0.0,81,0.00,,,-99.99,FreeWX 2.04,2013-01-30 00:47:00,
2013-01-29 19:52:00,37.0,31.8,29.47,North,-999,0.0,0.0,81,0.00,,,-99.99,FreeWX 2.04,2013-01-30 00:52:00,
2013-01-29 19:57:00,37.0,31.8,29.47,North,-999,0.0,3.6,81,0.00,,,-99.99,FreeWX 2.04,2013-01-30 00:57:00,
2013-01-29 20:02:00,37.0,31.8,29.44,North,-999,0.0,0.0,81,0.00,,,-99.99,FreeWX 2.04,2013-01-30 01:02:00,
2013-01-29 20:07:00,37.0,31.8,29.44,North,-999,0.0,0.0,81,0.00,,,-99.99,FreeWX 2.04,2013-01-30 01:07:00,
2013-01-29 20:12:00,37.2,32.2,29.44,North,-999,0.0,0.0,82,0.00,,,-99.99,FreeWX 2.04,2013-01-30 01:12:00,
2013-01-29 20:17:00,37.4,32.4,29.44,North,-999,0.0,0.0,82,0.00,,,-99.99,FreeWX 2.04,2013-01-30 01:17:00,
2013-01-29 20:22:00,37.2,32.2,29.44,North,-999,0.0,0.0,82,0.00,,,-99.99,FreeWX 2.04,2013-01-30 01:22:00,
2013-01-29 20:27:00,37.4,32.4,29.44,North,-999,0.0,3.6,82,0.00,,,-99.99,FreeWX 2.04,2013-01-30 01:27:00,
2013-01-29 20:32:00,37.6,32.5,29.44,North,-999,0.0,0.0,82,0.00,,,-99.99,FreeWX 2.04,2013-01-30 01:32:00,
2013-01-29 20:37:00,37.8,32.7,29.44,North,-999,0.0,0.0,82,0.00,,,-99.99,FreeWX 2.04,2013-01-30 01:37:00,
2013-01-29 20:42:00,38.5,33.8,29.44,North,-999,0.0,5.8,83,0.00,,,-99.99,FreeWX 2.04,2013-01-30 01:42:00,
2013-01-29 20:47:00,38.7,34.0,29.44,SSE,159,1.0,5.8,83,0.00,,,-99.99,FreeWX 2.04,2013-01-30 01:47:00,
2013-01-29 20:52:00,39.7,35.2,29.44,SSW,197,1.0,5.8,84,0.00,,,-99.99,FreeWX 2.04,2013-01-30 01:52:00,
2013-01-29 20:57:00,41.4,36.9,29.44,SSW,211,1.0,4.0,84,0.00,,,-99.99,FreeWX 2.04,2013-01-30 01:57:00,
2013-01-29 21:02:00,42.4,38.3,29.41,SSW,195,1.0,4.5,85,0.00,,,-99.99,FreeWX 2.04,2013-01-30 02:02:00,
2013-01-29 21:07:00,43.9,39.7,29.41,SSW,213,1.0,6.7,85,0.04,,,-99.99,FreeWX 2.04,2013-01-30 02:07:00,
2013-01-29 21:12:00,44.8,40.8,29.41,SW,235,1.0,4.0,86,0.04,,,-99.99,FreeWX 2.04,2013-01-30 02:12:00,
2013-01-29 21:17:00,45.0,41.0,29.41,North,-999,0.0,4.0,86,0.04,,,-99.99,FreeWX 2.04,2013-01-30 02:17:00,
2013-01-29 21:22:00,45.0,40.6,29.41,North,-999,0.0,3.1,85,0.04,,,-99.99,FreeWX 2.04,2013-01-30 02:22:00,